Bay Bulls, Canada
Current Conditions -  °F | °C
As of 6:00 PM on Thursday 23 Oct 2014 (Local Time) from CYYT Reporting Station
Broken Clouds Broken Clouds  
Wind Chill: 42°   Ceiling: 1600
Heat Index: 46°   Visibility: 15mi
Dew Point: 43°   Wind: 8mph
Humidity: 87%   Direction: 130°SE
Pressure: 30.28"   Gusts: NA
Location:  47.33°N, 52.83°W
Report Text: CYYT 232000Z 13007KT 15SM BKN016 BKN130 08/06 A3028 RMK SC5AC2 SLP258
Loading
Personal Weather Stations






























Interactive Weather Map
Tropical Storm Tracking
New forecast layout! Learn more

10-Day Weather Forecast

Advertisements
Track Severe Weather on mobile